createdAt,value
2022-11-14T00:00:53.024Z,92.35
2022-11-14T00:03:39.485Z,92.31
2022-11-14T00:06:26.115Z,92.39
2022-11-14T00:09:12.784Z,92.41
2022-11-14T00:11:59.472Z,91.97
2022-11-14T00:14:47.330Z,91.81
2022-11-14T00:17:34.066Z,92.06
2022-11-14T00:20:20.907Z,92.52
2022-11-14T00:23:07.400Z,92.33
2022-11-14T00:25:54.022Z,92.08
2022-11-14T00:28:40.718Z,92.21
2022-11-14T00:31:28.806Z,92.20
2022-11-14T00:34:15.599Z,92.54
2022-11-14T00:37:02.562Z,92.41
2022-11-14T00:39:49.244Z,92.06
2022-11-14T00:42:35.891Z,92.01
2022-11-14T00:45:23.124Z,92.45
2022-11-14T00:48:11.223Z,92.63
2022-11-14T00:50:57.743Z,92.89
2022-11-14T00:53:44.284Z,92.52
2022-11-14T00:56:30.978Z,92.36
2022-11-14T00:59:17.740Z,92.49
2022-11-14T01:02:04.408Z,92.57
2022-11-14T01:04:52.278Z,92.58
2022-11-14T01:07:38.516Z,93.27
2022-11-14T01:10:25.307Z,93.07
2022-11-14T01:13:12.853Z,93.14
2022-11-14T01:16:02.203Z,92.94
2022-11-14T01:18:48.896Z,93.79
2022-11-14T01:21:36.943Z,93.75
2022-11-14T01:24:23.286Z,94.13
2022-11-14T01:27:09.889Z,93.75
2022-11-14T01:29:56.669Z,93.76
2022-11-14T01:32:43.374Z,94.09
2022-11-14T01:35:30.491Z,94.06
2022-11-14T01:38:18.633Z,94.43
2022-11-14T01:41:05.793Z,94.48
2022-11-14T01:43:52.255Z,94.25
2022-11-14T01:46:41.960Z,94.30
2022-11-14T01:49:36.915Z,93.86
2022-11-14T01:52:26.657Z,93.98
2022-11-14T01:55:15.290Z,94.55
2022-11-14T01:58:01.954Z,94.12
2022-11-14T02:00:49.282Z,94.16
2022-11-14T02:03:39.331Z,94.03
2022-11-14T02:06:30.134Z,94.21
2022-11-14T02:09:17.460Z,94.44
2022-11-14T02:12:10.267Z,94.40
2022-11-14T02:14:59.938Z,94.56
2022-11-14T02:17:46.672Z,94.38
2022-11-14T02:20:37.772Z,95.24
2022-11-14T02:23:29.252Z,94.89
2022-11-14T02:26:18.608Z,95.03
2022-11-14T02:29:05.477Z,95.09
2022-11-14T02:31:51.959Z,94.96
2022-11-14T02:34:38.812Z,95.20
2022-11-14T02:37:26.737Z,95.28
2022-11-14T02:40:13.363Z,95.14
2022-11-14T02:42:59.977Z,95.08
2022-11-14T02:45:46.840Z,95.15
2022-11-14T02:48:33.159Z,95.63
2022-11-14T02:51:19.548Z,95.06
2022-11-14T02:54:08.321Z,94.96
2022-11-14T02:56:55.051Z,94.60
2022-11-14T02:59:41.620Z,95.06
2022-11-14T03:02:28.120Z,95.38
2022-11-14T03:05:14.890Z,95.32
2022-11-14T03:08:01.471Z,95.11
2022-11-14T03:10:49.384Z,95.61
2022-11-14T03:13:36.319Z,95.67
2022-11-14T03:16:23.080Z,95.69
2022-11-14T03:19:09.631Z,95.24
2022-11-14T03:21:56.125Z,95.63
2022-11-14T03:24:42.566Z,95.15
2022-11-14T03:27:30.366Z,94.94
2022-11-14T03:30:17.235Z,95.13
2022-11-14T03:33:03.520Z,95.26
2022-11-14T03:35:51.119Z,95.35
2022-11-14T03:38:37.973Z,95.41
2022-11-14T03:41:24.330Z,95.24
2022-11-14T03:44:12.311Z,95.24
2022-11-14T03:46:59.453Z,95.26
2022-11-14T03:49:46.401Z,95.71
2022-11-14T03:52:32.966Z,95.93
2022-11-14T03:55:19.654Z,95.33
2022-11-14T03:58:06.381Z,96.02
2022-11-14T04:00:55.934Z,95.77
2022-11-14T04:03:42.344Z,95.50
2022-11-14T04:06:28.791Z,95.72
2022-11-14T04:09:15.609Z,96.09
2022-11-14T04:12:01.933Z,95.61
2022-11-14T04:14:48.601Z,95.19
2022-11-14T04:17:39.840Z,95.55
2022-11-14T04:20:26.875Z,95.30
2022-11-14T04:23:13.441Z,95.32
2022-11-14T04:26:00.011Z,94.87
2022-11-14T04:28:46.630Z,95.12
2022-11-14T04:31:33.240Z,95.15
2022-11-14T04:34:21.204Z,95.02
2022-11-14T04:37:07.834Z,94.94
2022-11-14T04:39:58.509Z,94.56
2022-11-14T04:42:45.083Z,94.62
2022-11-14T04:45:31.805Z,94.34
2022-11-14T04:48:18.388Z,94.19
2022-11-14T04:51:06.547Z,93.87
2022-11-14T04:53:53.243Z,93.89
2022-11-14T04:56:39.736Z,93.93
2022-11-14T04:59:26.383Z,93.71
2022-11-14T05:02:13.007Z,93.36
2022-11-14T05:04:59.479Z,93.96
2022-11-14T05:07:47.312Z,93.56
2022-11-14T05:10:33.917Z,93.53
2022-11-14T05:13:20.736Z,93.20
2022-11-14T05:16:07.669Z,93.61
2022-11-14T05:18:55.011Z,93.00
2022-11-14T05:21:41.333Z,92.51
2022-11-14T05:24:29.374Z,92.80
2022-11-14T05:27:15.664Z,92.83
2022-11-14T05:30:02.087Z,92.53
2022-11-14T05:32:48.941Z,93.27
2022-11-14T05:35:35.561Z,93.26
2022-11-14T05:38:22.507Z,92.80
2022-11-14T05:41:12.947Z,93.12
2022-11-14T05:43:59.615Z,92.76
2022-11-14T05:46:46.397Z,92.99
2022-11-14T05:49:33.288Z,93.53
2022-11-14T05:52:20.010Z,94.89
2022-11-14T05:55:07.310Z,95.01
2022-11-14T05:57:59.283Z,95.35
2022-11-14T06:00:53.441Z,94.86
2022-11-14T06:03:42.228Z,95.95
2022-11-14T06:06:29.388Z,96.19
2022-11-14T06:09:15.725Z,96.06
2022-11-14T06:12:06.109Z,95.96
2022-11-14T06:14:54.187Z,95.88
2022-11-14T06:17:41.242Z,96.15
2022-11-14T06:20:27.691Z,95.94
2022-11-14T06:23:14.114Z,95.77
2022-11-14T06:26:01.637Z,95.12
2022-11-14T06:28:49.514Z,95.30
2022-11-14T06:31:37.365Z,95.66
2022-11-14T06:34:23.963Z,95.51
2022-11-14T06:37:10.571Z,95.26
2022-11-14T06:39:56.776Z,94.68
2022-11-14T06:42:43.311Z,94.59
2022-11-14T06:45:30.128Z,94.68
2022-11-14T06:48:17.885Z,94.76
2022-11-14T06:51:06.314Z,94.45
2022-11-14T06:53:52.921Z,94.47
2022-11-14T06:56:39.717Z,94.61
2022-11-14T06:59:26.251Z,94.79
2022-11-14T07:02:17.754Z,94.61
2022-11-14T07:05:10.275Z,95.24
2022-11-14T07:07:58.886Z,95.34
2022-11-14T07:10:45.597Z,95.04
2022-11-14T07:13:32.710Z,94.64
2022-11-14T07:16:19.795Z,94.76
2022-11-14T07:19:09.149Z,94.56
2022-11-14T07:21:56.904Z,94.28
2022-11-14T07:24:43.477Z,94.43
2022-11-14T07:27:30.407Z,94.43
2022-11-14T07:30:17.638Z,94.38
2022-11-14T07:33:04.095Z,94.54
2022-11-14T07:35:52.516Z,94.49
2022-11-14T07:38:41.113Z,95.02
2022-11-14T07:41:27.607Z,94.81
2022-11-14T07:44:14.016Z,94.96
2022-11-14T07:47:00.697Z,94.83
2022-11-14T07:49:47.517Z,95.13
2022-11-14T07:52:34.077Z,94.95
2022-11-14T07:55:22.895Z,95.17
2022-11-14T07:58:09.537Z,95.16
2022-11-14T08:00:55.784Z,95.39
2022-11-14T08:03:45.622Z,95.48
2022-11-14T08:06:33.308Z,95.49
2022-11-14T08:09:20.221Z,95.42
2022-11-14T08:12:08.606Z,95.68
2022-11-14T08:14:54.829Z,95.62
2022-11-14T08:17:41.617Z,95.32
2022-11-14T08:20:28.573Z,95.72
2022-11-14T08:23:15.151Z,96.28
2022-11-14T08:26:01.863Z,96.98
2022-11-14T08:28:53.170Z,97.32
2022-11-14T08:31:40.369Z,98.13
2022-11-14T08:34:26.979Z,98.43
2022-11-14T08:37:13.520Z,99.27
2022-11-14T08:39:59.995Z,100.00
2022-11-14T08:42:46.654Z,100.00
2022-11-14T08:45:34.371Z,100.00
2022-11-14T08:48:20.863Z,100.00
2022-11-14T08:51:08.506Z,100.00
2022-11-14T08:53:54.963Z,100.00
2022-11-14T08:56:41.602Z,100.00
2022-11-14T08:59:28.224Z,100.00
2022-11-14T09:02:16.182Z,100.00
2022-11-14T09:05:02.789Z,100.00
2022-11-14T09:07:49.004Z,100.00
2022-11-14T09:10:35.750Z,100.00
2022-11-14T09:13:22.624Z,100.00
2022-11-14T09:16:09.766Z,100.00
2022-11-14T09:18:57.643Z,100.00
2022-11-14T09:21:44.475Z,100.00
2022-11-14T09:24:31.161Z,100.00
2022-11-14T09:27:18.575Z,100.00
2022-11-14T09:30:06.281Z,100.00
2022-11-14T09:32:52.948Z,100.00
2022-11-14T09:35:41.335Z,100.00
2022-11-14T09:38:30.118Z,100.00
2022-11-14T09:41:25.171Z,100.00
2022-11-14T09:44:30.674Z,100.00
2022-11-14T09:47:21.661Z,100.00
2022-11-14T09:50:12.663Z,100.00
2022-11-14T09:53:06.165Z,100.00
2022-11-14T09:55:53.309Z,100.00
2022-11-14T09:58:42.614Z,100.00
2022-11-14T10:01:41.507Z,100.00
2022-11-14T10:04:42.043Z,100.00
2022-11-14T10:07:40.233Z,100.00
2022-11-14T10:10:43.400Z,100.00
2022-11-14T10:13:51.092Z,100.00
2022-11-14T10:16:47.726Z,100.00
2022-11-14T10:19:42.811Z,100.00
2022-11-14T10:22:51.791Z,100.00
2022-11-14T10:25:53.725Z,100.00
2022-11-14T10:28:48.547Z,100.00
2022-11-14T10:31:47.225Z,100.00
2022-11-14T10:34:39.081Z,100.00
2022-11-14T10:37:32.707Z,100.00
2022-11-14T10:40:23.104Z,100.00
2022-11-14T10:43:21.638Z,100.00
2022-11-14T10:46:14.369Z,100.00
2022-11-14T10:49:01.206Z,100.00
2022-11-14T10:51:51.524Z,99.53
2022-11-14T10:54:42.972Z,98.33
2022-11-14T10:57:30.671Z,97.83
2022-11-14T11:00:22.959Z,97.92
2022-11-14T11:03:09.797Z,97.29
2022-11-14T11:05:57.740Z,97.13
2022-11-14T11:09:02.086Z,96.78
2022-11-14T11:11:56.694Z,95.96
2022-11-14T11:14:44.261Z,95.93
2022-11-14T11:17:38.617Z,95.39
2022-11-14T11:20:32.020Z,95.48
2022-11-14T11:23:21.522Z,94.45
2022-11-14T11:26:17.065Z,94.71
2022-11-14T11:29:17.288Z,93.80
2022-11-14T11:32:04.039Z,93.72
2022-11-14T11:34:53.290Z,93.83
2022-11-14T11:37:45.004Z,93.59
2022-11-14T11:40:31.879Z,93.43
2022-11-14T11:43:42.856Z,93.28
2022-11-14T11:46:35.373Z,92.07
2022-11-14T11:49:36.352Z,92.51
2022-11-14T11:52:33.763Z,91.99
2022-11-14T11:55:25.082Z,91.51
2022-11-14T11:58:17.709Z,91.30
2022-11-14T12:01:04.443Z,92.09
2022-11-14T12:03:53.241Z,91.47
2022-11-14T12:06:47.484Z,91.16
2022-11-14T12:10:09.458Z,91.61
2022-11-14T12:13:06.622Z,91.34
2022-11-14T12:16:10.234Z,89.94
2022-11-14T12:19:25.568Z,89.80
2022-11-14T12:22:23.826Z,90.04
2022-11-14T12:25:39.488Z,89.30
2022-11-14T12:28:42.331Z,89.34
2022-11-14T12:31:33.320Z,87.90
2022-11-14T12:34:28.200Z,88.60
2022-11-14T12:37:21.837Z,88.38
2022-11-14T12:40:25.378Z,88.30
2022-11-14T12:43:36.392Z,87.71
2022-11-14T12:46:23.784Z,87.15
2022-11-14T12:49:38.426Z,87.31
2022-11-14T12:52:44.433Z,87.23
2022-11-14T12:56:03.609Z,86.49
2022-11-14T12:59:05.563Z,86.15
2022-11-14T13:02:28.287Z,85.96
2022-11-14T13:05:25.381Z,86.17
2022-11-14T13:08:45.694Z,86.49
2022-11-14T13:11:58.244Z,86.89
2022-11-14T13:15:08.071Z,85.79
2022-11-14T13:18:23.151Z,86.13
2022-11-14T13:21:45.373Z,85.32
2022-11-14T13:25:18.150Z,84.88
2022-11-14T13:28:38.659Z,84.56
2022-11-14T13:31:50.673Z,85.81
2022-11-14T13:34:43.200Z,84.76
2022-11-14T13:37:58.901Z,85.03
2022-11-14T13:40:53.173Z,85.06
2022-11-14T13:43:57.103Z,85.07
2022-11-14T13:47:10.322Z,83.88
2022-11-14T13:50:06.650Z,84.50
2022-11-14T13:52:53.882Z,83.84
2022-11-14T13:56:02.389Z,84.29
2022-11-14T13:59:06.400Z,81.12
2022-11-14T14:02:16.222Z,81.94
2022-11-14T14:05:14.153Z,81.59
2022-11-14T14:08:15.269Z,81.07
2022-11-14T14:11:23.382Z,81.83
2022-11-14T14:14:25.430Z,81.83
2022-11-14T14:17:21.783Z,81.27
2022-11-14T14:20:22.444Z,81.23
2022-11-14T14:23:19.795Z,81.41
2022-11-14T14:26:20.226Z,81.80
2022-11-14T14:38:02.127Z,81.06
2022-11-14T14:40:49.429Z,81.21
2022-11-14T14:43:36.685Z,81.73
2022-11-14T14:46:32.022Z,80.44
2022-11-14T14:49:26.841Z,80.84
2022-11-14T14:52:29.602Z,81.09
2022-11-14T14:55:22.579Z,81.04
2022-11-14T14:58:22.270Z,80.81
2022-11-14T15:01:16.756Z,81.05
2022-11-14T15:04:06.189Z,81.67
2022-11-14T15:06:52.887Z,81.30
2022-11-14T15:09:39.734Z,81.58
2022-11-14T15:12:31.020Z,81.85
2022-11-14T15:15:20.163Z,82.40
2022-11-14T15:18:09.897Z,82.38
2022-11-14T15:21:14.782Z,82.30
2022-11-14T15:24:04.062Z,82.69
2022-11-14T15:26:52.306Z,82.52
2022-11-14T15:29:46.762Z,82.88
2022-11-14T15:32:33.709Z,83.11
2022-11-14T15:35:31.763Z,83.24
2022-11-14T15:38:43.219Z,83.11
2022-11-14T15:41:31.165Z,83.55
2022-11-14T15:44:30.959Z,83.08
2022-11-14T15:47:24.165Z,83.22
2022-11-14T15:50:30.306Z,83.75
2022-11-14T15:53:23.768Z,83.16
2022-11-14T15:56:13.051Z,83.80
2022-11-14T15:58:59.683Z,84.10
2022-11-14T16:01:50.482Z,84.02
2022-11-14T16:04:44.369Z,83.40
2022-11-14T16:07:34.125Z,83.67
2022-11-14T16:10:22.437Z,83.42
2022-11-14T16:13:10.152Z,83.31
2022-11-14T16:15:56.920Z,83.59
2022-11-14T16:18:43.155Z,84.18
2022-11-14T16:21:31.198Z,83.85
2022-11-14T16:24:19.786Z,84.04
2022-11-14T16:27:06.469Z,84.11
2022-11-14T16:29:53.134Z,84.10
2022-11-14T16:32:40.342Z,84.63
2022-11-14T16:35:28.025Z,84.47
2022-11-14T16:38:15.651Z,84.95
2022-11-14T16:41:01.977Z,84.66
2022-11-14T16:43:48.565Z,84.75
2022-11-14T16:46:36.118Z,84.71
2022-11-14T16:49:22.562Z,85.16
2022-11-14T16:52:11.513Z,85.48
2022-11-14T16:54:59.374Z,85.51
2022-11-14T16:57:45.808Z,85.81
2022-11-14T17:00:33.583Z,86.06
2022-11-14T17:03:20.096Z,86.22
2022-11-14T17:06:09.497Z,86.48
2022-11-14T17:08:56.233Z,86.76
2022-11-14T17:11:45.139Z,87.23
2022-11-14T17:14:31.854Z,86.82
2022-11-14T17:17:18.427Z,86.92
2022-11-14T17:20:05.809Z,87.24
2022-11-14T17:22:51.913Z,87.58
2022-11-14T17:25:38.432Z,88.49
2022-11-14T17:28:26.436Z,88.25
2022-11-14T17:31:12.751Z,88.54
2022-11-14T17:34:01.049Z,88.55
2022-11-14T17:36:47.228Z,89.24
2022-11-14T17:39:35.136Z,88.94
2022-11-14T17:42:21.374Z,88.75
2022-11-14T17:45:10.647Z,88.81
2022-11-14T17:47:57.363Z,89.48
2022-11-14T17:50:44.055Z,89.63
2022-11-14T17:53:31.054Z,90.52
2022-11-14T17:56:20.209Z,89.88
2022-11-14T17:59:06.865Z,90.29
2022-11-14T18:01:57.543Z,90.30
2022-11-14T18:04:44.294Z,90.46
2022-11-14T18:07:31.130Z,90.35
2022-11-14T18:10:18.499Z,90.22
2022-11-14T18:13:05.206Z,90.20
2022-11-14T18:15:51.960Z,90.71
2022-11-14T18:18:40.217Z,91.24
2022-11-14T18:21:27.152Z,91.58
2022-11-14T18:24:14.950Z,91.31
2022-11-14T18:27:01.663Z,91.30
2022-11-14T18:29:48.575Z,91.84
2022-11-14T18:32:35.339Z,91.46
2022-11-14T18:35:23.216Z,91.37
2022-11-14T18:38:09.599Z,91.75
2022-11-14T18:40:57.677Z,91.67
2022-11-14T18:43:45.391Z,91.56
2022-11-14T18:46:37.051Z,92.25
2022-11-14T18:49:23.841Z,91.87
2022-11-14T18:52:17.192Z,91.88
2022-11-14T18:55:04.806Z,91.69
2022-11-14T18:57:51.401Z,92.09
2022-11-14T19:00:37.890Z,92.24
2022-11-14T19:03:24.396Z,91.32
2022-11-14T19:06:12.430Z,91.79
2022-11-14T19:09:03.579Z,91.17
2022-11-14T19:12:11.085Z,91.34
2022-11-14T19:14:57.462Z,90.82
2022-11-14T19:17:44.198Z,91.10
2022-11-14T19:20:30.595Z,90.66
2022-11-14T19:23:17.302Z,90.58
2022-11-14T19:26:05.571Z,91.44
2022-11-14T19:28:52.047Z,91.37
2022-11-14T19:31:38.798Z,91.18
2022-11-14T19:34:25.653Z,90.65
2022-11-14T19:37:12.191Z,91.12
2022-11-14T19:39:58.845Z,91.53
2022-11-14T19:42:46.823Z,91.16
2022-11-14T19:45:35.372Z,90.87
2022-11-14T19:48:21.884Z,91.83
2022-11-14T19:51:11.373Z,91.01
2022-11-14T19:53:59.795Z,91.67
2022-11-14T19:56:46.236Z,91.10
2022-11-14T19:59:34.247Z,91.21
2022-11-14T20:02:20.760Z,91.10
2022-11-14T20:05:08.713Z,91.04
2022-11-14T20:07:55.429Z,91.00
2022-11-14T20:10:48.385Z,91.83
2022-11-14T20:13:36.397Z,92.04
2022-11-14T20:16:26.590Z,91.85
2022-11-14T20:19:14.791Z,92.45
2022-11-14T20:22:01.430Z,92.71
2022-11-14T20:24:50.447Z,92.50
2022-11-14T20:27:37.311Z,92.40
2022-11-14T20:30:25.123Z,92.86
2022-11-14T20:33:13.173Z,92.07
2022-11-14T20:36:04.135Z,91.86
2022-11-14T20:38:53.336Z,91.84
2022-11-14T20:41:40.400Z,90.87
2022-11-14T20:44:29.003Z,91.37
2022-11-14T20:47:17.360Z,91.59
2022-11-14T20:50:05.564Z,91.44
2022-11-14T20:52:52.258Z,91.26
2022-11-14T20:55:39.130Z,90.81
2022-11-14T20:58:25.936Z,90.96
2022-11-14T21:01:13.800Z,90.73
2022-11-14T21:04:00.246Z,90.94
2022-11-14T21:06:48.171Z,90.83
2022-11-14T21:09:34.871Z,91.64
2022-11-14T21:12:21.520Z,91.82
2022-11-14T21:15:09.165Z,91.50
2022-11-14T21:17:55.495Z,90.81
2022-11-14T21:20:42.049Z,90.96
2022-11-14T21:23:30.295Z,91.24
2022-11-14T21:26:18.629Z,90.86
2022-11-14T21:29:07.759Z,90.88
2022-11-14T21:31:55.679Z,90.20
2022-11-14T21:34:42.686Z,88.97
2022-11-14T21:37:29.389Z,89.76
2022-11-14T21:40:17.694Z,89.59
2022-11-14T21:43:04.550Z,89.67
2022-11-14T21:45:58.743Z,89.95
2022-11-14T21:48:47.276Z,88.71
2022-11-14T21:51:33.617Z,87.97
2022-11-14T21:54:20.633Z,88.08
2022-11-14T21:57:10.230Z,87.85
2022-11-14T21:59:57.386Z,87.84
2022-11-14T22:03:01.671Z,88.04
2022-11-14T22:05:48.398Z,88.90
2022-11-14T22:08:35.041Z,89.44
2022-11-14T22:11:21.885Z,90.16
2022-11-14T22:14:09.942Z,90.42
2022-11-14T22:16:58.929Z,90.46
2022-11-14T22:19:45.797Z,91.06
2022-11-14T22:22:32.998Z,90.62
2022-11-14T22:25:20.603Z,90.47
2022-11-14T22:28:07.261Z,90.37
2022-11-14T22:31:10.668Z,90.58
2022-11-14T22:33:59.536Z,90.77
2022-11-14T22:36:46.122Z,90.22
2022-11-14T22:39:32.824Z,90.76
2022-11-14T22:42:19.471Z,90.42
2022-11-14T22:45:07.678Z,90.44
2022-11-14T22:47:58.812Z,91.08
2022-11-14T22:50:45.603Z,91.18
2022-11-14T22:53:34.141Z,90.99
2022-11-14T22:56:23.188Z,91.41
2022-11-14T22:59:10.322Z,91.30
2022-11-14T23:01:56.950Z,90.72
2022-11-14T23:04:44.700Z,91.28
2022-11-14T23:07:31.660Z,92.11
2022-11-14T23:10:18.958Z,91.46
2022-11-14T23:13:05.484Z,92.48
2022-11-14T23:15:52.099Z,92.46
2022-11-14T23:18:39.121Z,91.85
2022-11-14T23:21:28.990Z,92.27
2022-11-14T23:24:15.810Z,92.49
2022-11-14T23:27:02.291Z,92.18
2022-11-14T23:29:49.239Z,92.34
2022-11-14T23:32:35.634Z,92.22
2022-11-14T23:35:22.159Z,92.26
2022-11-14T23:38:10.668Z,92.86
2022-11-14T23:40:58.991Z,93.06
2022-11-14T23:43:45.495Z,92.77
2022-11-14T23:46:31.989Z,93.43
2022-11-14T23:49:18.586Z,93.74
2022-11-14T23:52:05.532Z,93.08
2022-11-14T23:54:53.393Z,93.50
2022-11-14T23:57:39.727Z,93.60
